LGEL

Details ICAO LGEL
Name ELEFSIS
Region Greece
Timezone Europe/Athens (UTC+3.0)
Plans Departing 115
Arriving 90
Stats Elevation 143 ft / 44 m (AMSL)
Location 38.063900° 23.556000°
Runways 1
Magnetic Variation 4.589° E
Sunrise 2019-05-22 03:11:44 UTC / 2019-05-22 06:11:44 Local
Sunset 2019-05-22 17:35:57 UTC / 2019-05-22 20:35:57 Local
Advertisement - Login to hide

Runways

ID Width Length Bearing (true/mag) Surface Threshold Overrun Markings Lighting
18 131 ft / 40 m 8,940 ft / 2,725 m 179.85° / 175.26° ASPHALT 0 ft / 0 m 830 ft / 253 m APP EDGE THRESHOLD SALS
36 131 ft / 40 m 8,940 ft / 2,725 m 359.85° / 355.26° ASPHALT 198 ft / 60 m 150 ft / 46 m APP EDGE THRESHOLD MALS

Map

Weather


0- 5 10 15 20 25 30 35+ Temperature / °C

Clouds and Precipitation
Forecast for 2019-05-22 18:00 UTC. Updated an hour ago

Ground ~20,000 ft ~40,000 ft Winds

METAR

LGEL 221620Z 18006KT 9999 FEW025 BKN070 22/11 Q1012

TAF

TAF LGEL 221100Z 2212/2312 33007KT 9999 FEW025 BKN070

Frequencies

Tower 120.15 MHz
Approach 129.55 MHz ATHINAI APP
Approach 119.10 MHz ATHINAI APP
Tower 122.10 MHz
Warning: Do not use this data for real-world aviation or navigation. No guarantee of current accuracy is given.